LEMG/AGP METAR and TAF weather

Enter ICAO airport designator
Station Type Date Time Source
LEMG METAR 2021/09/24 06:30 UTC NOAA

LEMG 240630Z 14004KT 090V210 8000 -RA SCT010 SCT017 BKN024 23/22 Q1013 NOSIG


Station Type Date Time Source
LEMG Decoded METAR 2021/09/24 06:30 UTC NOAA

Malaga / Aeropuerto, Spain (LEMG) 36-40N 004-29W 7M
Sep 24, 2021 - 02:30 AM EDT / 2021.09.24 0630 UTC
Wind: from the SE (140 degrees) at 5 MPH (4 KT) (direction variable):0
Visibility: 4 mile(s):0
Sky conditions: mostly cloudy
Weather: light rain
Temperature: 73 F (23 C)
Dew Point: 71 F (22 C)
Relative Humidity: 94%
Pressure (altimeter): 29.91 in. Hg (1013 hPa)
ob: LEMG 240630Z 14004KT 090V210 8000 -RA SCT010 SCT017 BKN024 23/22 Q1013 NOSIG
cycle: 6

Station Type Date Time Source
LEMG TAF 2021/09/24 06:27 UTC NOAA

TAF TAF LEMG 240500Z 2406/2506 13006KT 9999 SCT020 SCT040 TX26/2415Z TN21/2506Z PROB40
TEMPO 2406/2415 3000 SHRA BKN010 SCT020TCU
BECMG 2501/2504 27006KT

Example: see airport list